createdAt,value
2023-05-05T00:00:14.859Z,14.65
2023-05-05T00:00:31.010Z,14.62
2023-05-05T00:00:47.140Z,14.62
2023-05-05T00:01:03.273Z,14.62
2023-05-05T00:01:19.418Z,14.61
2023-05-05T00:01:35.596Z,14.55
2023-05-05T00:01:51.756Z,14.53
2023-05-05T00:02:07.904Z,14.52
2023-05-05T00:02:24.058Z,14.52
2023-05-05T00:02:40.260Z,14.49
2023-05-05T00:02:56.385Z,14.48
2023-05-05T00:03:12.545Z,14.51
2023-05-05T00:03:28.654Z,14.47
2023-05-05T00:03:44.883Z,14.5
2023-05-05T00:04:00.990Z,14.5
2023-05-05T00:04:17.106Z,14.51
2023-05-05T00:04:33.168Z,14.49
2023-05-05T00:04:49.342Z,14.46
2023-05-05T00:05:05.482Z,14.42
2023-05-05T00:05:21.615Z,14.43
2023-05-05T00:05:37.767Z,14.45
2023-05-05T00:05:53.930Z,14.46
2023-05-05T00:06:10.050Z,14.46
2023-05-05T00:06:26.207Z,14.47
2023-05-05T00:06:42.336Z,14.42
2023-05-05T00:06:58.543Z,14.43
2023-05-05T00:07:14.635Z,14.41
2023-05-05T00:07:30.773Z,14.44
2023-05-05T00:07:46.923Z,14.45
2023-05-05T00:08:03.084Z,14.42
2023-05-05T00:08:19.213Z,14.45
2023-05-05T00:08:35.372Z,14.46
2023-05-05T00:08:51.536Z,14.46
2023-05-05T00:09:07.658Z,14.48
2023-05-05T00:09:23.828Z,14.48
2023-05-05T00:09:39.955Z,14.47
2023-05-05T00:09:56.086Z,14.49
2023-05-05T00:10:12.241Z,14.48
2023-05-05T00:10:28.404Z,14.48
2023-05-05T00:10:44.519Z,14.5
2023-05-05T00:11:00.672Z,14.51
2023-05-05T00:11:16.738Z,14.53
2023-05-05T00:11:32.965Z,14.53
2023-05-05T00:11:49.096Z,14.54
2023-05-05T00:12:05.249Z,14.55
2023-05-05T00:12:21.390Z,14.51
2023-05-05T00:12:37.556Z,14.5
2023-05-05T00:12:53.747Z,14.51
2023-05-05T00:13:09.851Z,14.48
2023-05-05T00:13:26.004Z,14.48
2023-05-05T00:13:42.173Z,14.44
2023-05-05T00:13:58.273Z,14.46
2023-05-05T00:14:14.417Z,14.44
2023-05-05T00:14:30.560Z,14.43
2023-05-05T00:14:46.731Z,14.45
2023-05-05T00:15:02.861Z,14.44
2023-05-05T00:15:18.996Z,14.38
2023-05-05T00:15:35.149Z,14.38
2023-05-05T00:15:51.338Z,14.41
2023-05-05T00:16:07.454Z,14.42
2023-05-05T00:16:23.657Z,14.42
2023-05-05T00:16:39.780Z,14.43
2023-05-05T00:16:55.898Z,14.44
2023-05-05T00:17:12.117Z,14.44
2023-05-05T00:17:28.330Z,14.41
2023-05-05T00:17:44.381Z,14.41
2023-05-05T00:18:00.500Z,14.42
2023-05-05T00:18:16.654Z,14.43
2023-05-05T00:18:32.752Z,14.37
2023-05-05T00:18:48.911Z,14.37
2023-05-05T00:19:05.070Z,14.4
2023-05-05T00:19:21.175Z,14.41
2023-05-05T00:19:37.315Z,14.42
2023-05-05T00:19:53.472Z,14.37
2023-05-05T00:20:25.770Z,14.39
2023-05-05T00:20:41.946Z,14.37
2023-05-05T00:20:58.067Z,14.37
2023-05-05T00:21:14.238Z,14.38
2023-05-05T00:21:30.414Z,14.4
2023-05-05T00:21:46.515Z,14.38
2023-05-05T00:22:02.616Z,14.4
2023-05-05T00:22:18.809Z,14.41
2023-05-05T00:22:34.935Z,14.43
2023-05-05T00:22:51.087Z,14.35
2023-05-05T00:23:18.497Z,14.38
2023-05-05T00:23:34.636Z,14.4
2023-05-05T00:23:50.787Z,14.4
2023-05-05T00:24:06.937Z,14.41
2023-05-05T00:24:23.088Z,14.42
2023-05-05T00:24:39.235Z,14.41
2023-05-05T00:24:55.398Z,14.42
2023-05-05T00:25:11.519Z,14.43
2023-05-05T00:25:27.662Z,14.43
2023-05-05T00:25:43.837Z,14.43
2023-05-05T00:25:59.954Z,14.44
2023-05-05T00:26:16.096Z,14.44
2023-05-05T00:26:32.246Z,14.44
2023-05-05T00:26:48.399Z,14.45
2023-05-05T00:27:04.558Z,14.41
2023-05-05T00:27:20.687Z,14.42
2023-05-05T00:27:38.382Z,14.42
2023-05-05T00:27:53.009Z,14.39
2023-05-05T00:28:09.159Z,14.41
2023-05-05T00:28:25.308Z,14.41
2023-05-05T00:28:41.429Z,14.41
2023-05-05T00:28:57.562Z,14.42
2023-05-05T00:29:13.711Z,14.42
2023-05-05T00:29:29.860Z,14.39
2023-05-05T00:29:45.992Z,14.36
2023-05-05T00:30:02.134Z,14.38
2023-05-05T00:30:18.275Z,14.37
2023-05-05T00:30:34.455Z,14.37
2023-05-05T00:30:50.627Z,14.37
2023-05-05T00:31:06.745Z,14.37
2023-05-05T00:31:22.884Z,14.37
2023-05-05T00:31:39.097Z,14.33
2023-05-05T00:31:55.153Z,14.33
2023-05-05T00:32:11.337Z,14.34
2023-05-05T00:32:27.482Z,14.33
2023-05-05T00:32:43.683Z,14.29
2023-05-05T00:32:59.753Z,14.29
2023-05-05T00:33:15.888Z,14.28
2023-05-05T00:33:32.044Z,14.3
2023-05-05T00:33:48.165Z,14.3
2023-05-05T00:34:04.328Z,14.27
2023-05-05T00:34:20.471Z,14.26
2023-05-05T00:34:36.603Z,14.25
2023-05-05T00:34:52.746Z,14.25
2023-05-05T00:35:08.914Z,14.21
2023-05-05T00:35:25.048Z,14.16
2023-05-05T00:35:41.191Z,14.19
2023-05-05T00:35:57.356Z,14.19
2023-05-05T00:36:13.472Z,14.21
2023-05-05T00:36:29.637Z,14.22
2023-05-05T00:36:45.759Z,14.22
2023-05-05T00:37:01.909Z,14.2
2023-05-05T00:37:18.113Z,14.16
2023-05-05T00:37:34.222Z,14.16
2023-05-05T00:37:50.367Z,14.15
2023-05-05T00:38:06.425Z,14.16
2023-05-05T00:38:22.652Z,14.17
2023-05-05T00:38:38.814Z,14.09
2023-05-05T00:38:54.928Z,14.08
2023-05-05T00:39:11.114Z,14.11
2023-05-05T00:39:27.229Z,14.12
2023-05-05T00:39:43.378Z,14.1
2023-05-05T00:39:59.514Z,14.11
2023-05-05T00:40:15.653Z,14.11
2023-05-05T00:40:31.841Z,14.09
2023-05-05T00:40:47.950Z,14.1
2023-05-05T00:41:04.102Z,14.12
2023-05-05T00:41:20.237Z,14.11
2023-05-05T00:41:36.394Z,14.09
2023-05-05T00:41:52.549Z,14.11
2023-05-05T00:42:08.698Z,14.1
2023-05-05T00:42:24.857Z,14.11
2023-05-05T00:42:40.955Z,14.12
2023-05-05T00:42:57.116Z,14.13
2023-05-05T00:43:13.263Z,14.05
2023-05-05T00:43:29.405Z,14.09
2023-05-05T00:43:45.562Z,14.09
2023-05-05T00:44:01.750Z,14.09
2023-05-05T00:44:17.847Z,14.1
2023-05-05T00:44:33.992Z,14.09
2023-05-05T00:44:50.050Z,14.1
2023-05-05T00:45:06.287Z,14.12
2023-05-05T00:45:22.419Z,14.13
2023-05-05T00:45:38.627Z,14.12
2023-05-05T00:45:54.629Z,14.12
2023-05-05T00:46:10.906Z,14.11
2023-05-05T00:46:27.095Z,14.12
2023-05-05T00:46:43.220Z,14.14
2023-05-05T00:46:59.322Z,14.12
2023-05-05T00:47:15.480Z,14.11
2023-05-05T00:47:31.625Z,14.11
2023-05-05T00:47:47.773Z,14.12
2023-05-05T00:48:03.902Z,14.1
2023-05-05T00:48:20.030Z,14.08
2023-05-05T00:48:36.194Z,14.09
2023-05-05T00:48:52.390Z,14.05
2023-05-05T00:49:08.505Z,14.06
2023-05-05T00:49:24.673Z,14.05
2023-05-05T00:49:40.749Z,14.01
2023-05-05T00:49:56.997Z,14.04
2023-05-05T00:50:13.046Z,14.04
2023-05-05T00:50:29.202Z,14.05
2023-05-05T00:50:45.345Z,14.05
2023-05-05T00:51:01.517Z,14.06
2023-05-05T00:51:17.664Z,14.05
2023-05-05T00:51:33.688Z,14.07
2023-05-05T00:51:49.963Z,14.02
2023-05-05T00:52:06.064Z,14
2023-05-05T00:52:22.235Z,14
2023-05-05T00:52:38.367Z,14.02
2023-05-05T00:52:54.517Z,14.01
2023-05-05T00:53:10.666Z,14.02
2023-05-05T00:53:26.791Z,14.03
2023-05-05T00:53:42.967Z,13.99
2023-05-05T00:53:59.106Z,13.91
2023-05-05T00:54:15.228Z,13.9
2023-05-05T00:54:31.400Z,13.89
2023-05-05T00:54:47.538Z,13.92
2023-05-05T00:55:19.826Z,13.83
2023-05-05T00:55:35.968Z,13.85
2023-05-05T00:55:52.120Z,13.87
2023-05-05T00:56:08.247Z,13.86
2023-05-05T00:56:24.410Z,13.89
2023-05-05T00:56:40.543Z,13.9
2023-05-05T00:56:56.711Z,13.89
2023-05-05T00:57:12.830Z,13.85
2023-05-05T00:57:28.999Z,13.83
2023-05-05T00:57:45.150Z,13.85
2023-05-05T00:58:01.276Z,13.85
2023-05-05T00:58:17.450Z,13.85
2023-05-05T00:58:33.568Z,13.85
2023-05-05T00:58:49.731Z,13.87
2023-05-05T00:59:05.857Z,13.89
2023-05-05T00:59:22.009Z,13.91
2023-05-05T00:59:38.205Z,13.9
2023-05-05T00:59:54.289Z,13.87
2023-05-05T01:00:10.593Z,13.9
2023-05-05T01:00:26.572Z,13.89
2023-05-05T01:00:42.709Z,13.9
2023-05-05T01:00:58.899Z,13.91
2023-05-05T01:01:15.065Z,13.93
2023-05-05T01:01:31.181Z,13.94
2023-05-05T01:01:47.335Z,13.94
2023-05-05T01:02:03.516Z,13.96
2023-05-05T01:02:19.616Z,13.98
2023-05-05T01:02:35.797Z,13.99
2023-05-05T01:02:52.021Z,14
2023-05-05T01:03:08.129Z,14
2023-05-05T01:03:24.269Z,13.99
2023-05-05T01:03:40.379Z,13.9
2023-05-05T01:03:56.492Z,13.92
2023-05-05T01:04:12.646Z,13.89
2023-05-05T01:04:28.753Z,13.9
2023-05-05T01:04:44.900Z,13.89
2023-05-05T01:05:01.053Z,13.91
2023-05-05T01:05:17.193Z,13.92
2023-05-05T01:05:33.366Z,13.91
2023-05-05T01:05:49.489Z,13.92
2023-05-05T01:06:05.688Z,13.93
2023-05-05T01:06:21.803Z,13.94
2023-05-05T01:06:37.915Z,13.94
2023-05-05T01:06:54.080Z,13.94
2023-05-05T01:07:10.201Z,13.93
2023-05-05T01:07:26.357Z,13.91
2023-05-05T01:07:42.502Z,13.92
2023-05-05T01:07:58.643Z,13.93
2023-05-05T01:08:14.820Z,13.94
2023-05-05T01:08:30.976Z,13.94
2023-05-05T01:08:47.115Z,13.94
2023-05-05T01:09:03.267Z,13.95
2023-05-05T01:09:19.375Z,13.91
2023-05-05T01:09:35.546Z,13.88
2023-05-05T01:09:58.083Z,13.86
2023-05-05T01:10:18.826Z,13.89
2023-05-05T01:10:24.161Z,13.89
2023-05-05T01:10:40.168Z,13.89
2023-05-05T01:10:56.258Z,13.9
2023-05-05T01:11:12.431Z,13.91
2023-05-05T01:11:28.581Z,13.92
2023-05-05T01:11:44.692Z,13.93
2023-05-05T01:12:00.855Z,13.93
2023-05-05T01:12:16.993Z,13.88
2023-05-05T01:12:33.190Z,13.9
2023-05-05T01:12:49.213Z,13.91
2023-05-05T01:13:05.485Z,13.92
2023-05-05T01:13:21.550Z,13.93
2023-05-05T01:13:37.710Z,13.92
2023-05-05T01:13:53.860Z,13.9
2023-05-05T01:14:10.024Z,13.93
2023-05-05T01:14:26.147Z,13.94
2023-05-05T01:14:42.282Z,13.95
2023-05-05T01:14:58.452Z,13.93
2023-05-05T01:15:14.568Z,13.88
2023-05-05T01:15:30.706Z,13.88
2023-05-05T01:15:46.893Z,13.9
2023-05-05T01:16:03.047Z,13.87
2023-05-05T01:16:19.193Z,13.87
2023-05-05T01:16:35.357Z,13.88
2023-05-05T01:16:51.448Z,13.87
2023-05-05T01:17:18.888Z,13.88
2023-05-05T01:17:35.101Z,13.85
2023-05-05T01:17:51.198Z,13.86
2023-05-05T01:18:07.396Z,13.85
2023-05-05T01:18:23.464Z,13.82
2023-05-05T01:18:39.607Z,13.82
2023-05-05T01:18:55.746Z,13.83
2023-05-05T01:19:11.914Z,13.84
2023-05-05T01:19:28.056Z,13.86
2023-05-05T01:19:44.206Z,13.86
2023-05-05T01:20:00.334Z,13.86
2023-05-05T01:20:16.501Z,13.87
2023-05-05T01:20:32.619Z,13.87
2023-05-05T01:20:48.806Z,13.87
2023-05-05T01:21:04.928Z,13.86
2023-05-05T01:21:21.076Z,13.84
2023-05-05T01:21:37.195Z,13.85
2023-05-05T01:21:53.399Z,13.86
2023-05-05T01:22:09.505Z,13.86
2023-05-05T01:22:25.642Z,13.87
2023-05-05T01:22:41.817Z,13.88
2023-05-05T01:22:57.948Z,13.87
2023-05-05T01:23:14.100Z,13.88
2023-05-05T01:23:30.236Z,13.88
2023-05-05T01:23:46.383Z,13.89
2023-05-05T01:24:02.571Z,13.91
2023-05-05T01:24:18.675Z,13.9
2023-05-05T01:24:34.805Z,13.88
2023-05-05T01:24:50.955Z,13.88
2023-05-05T01:25:07.108Z,13.83
2023-05-05T01:25:23.251Z,13.8
2023-05-05T01:25:39.392Z,13.83
2023-05-05T01:25:55.552Z,13.84
2023-05-05T01:26:11.695Z,13.78
2023-05-05T01:26:27.827Z,13.77
2023-05-05T01:26:43.977Z,13.79
2023-05-05T01:27:00.124Z,13.77
2023-05-05T01:27:16.275Z,13.77
2023-05-05T01:27:32.420Z,13.78
2023-05-05T01:27:48.557Z,13.77
2023-05-05T01:28:04.716Z,13.78
2023-05-05T01:28:20.968Z,13.75
2023-05-05T01:28:37.000Z,13.72
2023-05-05T01:28:53.138Z,13.72
2023-05-05T01:29:09.352Z,13.72
2023-05-05T01:29:25.457Z,13.74
2023-05-05T01:29:41.608Z,13.7
2023-05-05T01:29:57.725Z,13.72
2023-05-05T01:30:13.880Z,13.72
2023-05-05T01:30:30.060Z,13.73
2023-05-05T01:30:46.181Z,13.73
2023-05-05T01:31:02.323Z,13.74
2023-05-05T01:31:18.495Z,13.76
2023-05-05T01:31:34.626Z,13.77
2023-05-05T01:31:50.790Z,13.74
2023-05-05T01:32:06.886Z,13.73
2023-05-05T01:32:23.057Z,13.68
2023-05-05T01:32:39.215Z,13.71
2023-05-05T01:32:55.488Z,13.7
2023-05-05T01:33:11.541Z,13.7
2023-05-05T01:33:27.609Z,13.71
2023-05-05T01:33:43.756Z,13.74
2023-05-05T01:33:59.902Z,13.74
2023-05-05T01:34:16.120Z,13.76
2023-05-05T01:34:32.198Z,13.76
2023-05-05T01:34:48.363Z,13.78
2023-05-05T01:35:04.505Z,13.78
2023-05-05T01:35:20.667Z,13.79
2023-05-05T01:35:36.784Z,13.79
2023-05-05T01:35:52.930Z,13.79
2023-05-05T01:36:09.078Z,13.8
2023-05-05T01:36:25.228Z,13.81
2023-05-05T01:36:41.401Z,13.78
2023-05-05T01:36:57.491Z,13.8
2023-05-05T01:37:13.669Z,13.76
2023-05-05T01:37:29.821Z,13.74
2023-05-05T01:37:45.929Z,13.72
2023-05-05T01:38:02.109Z,13.74
2023-05-05T01:38:18.240Z,13.69
2023-05-05T01:38:34.384Z,13.69
2023-05-05T01:38:50.541Z,13.68
2023-05-05T01:39:06.744Z,13.65
2023-05-05T01:39:22.825Z,13.65
2023-05-05T01:39:38.999Z,13.65
2023-05-05T01:39:55.136Z,13.6
2023-05-05T01:40:11.261Z,13.58
2023-05-05T01:40:27.398Z,13.61
2023-05-05T01:40:43.610Z,13.61
2023-05-05T01:40:59.696Z,13.6
2023-05-05T01:41:15.847Z,13.6
2023-05-05T01:41:31.993Z,13.61
2023-05-05T01:41:48.139Z,13.6
2023-05-05T01:42:04.297Z,13.62
2023-05-05T01:42:20.418Z,13.62
2023-05-05T01:42:36.559Z,13.63
2023-05-05T01:42:52.751Z,13.62
2023-05-05T01:43:08.845Z,13.61
2023-05-05T01:43:24.993Z,13.59
2023-05-05T01:43:41.181Z,13.6
2023-05-05T01:43:57.294Z,13.61
2023-05-05T01:44:13.460Z,13.61
2023-05-05T01:44:29.600Z,13.62
2023-05-05T01:44:45.773Z,13.62
2023-05-05T01:45:01.901Z,13.62
2023-05-05T01:45:18.023Z,13.63
2023-05-05T01:45:34.197Z,13.63
2023-05-05T01:45:50.328Z,13.61
2023-05-05T01:46:06.553Z,13.62
2023-05-05T01:46:22.810Z,13.63
2023-05-05T01:46:38.742Z,13.64
2023-05-05T01:46:54.882Z,13.61
2023-05-05T01:47:11.057Z,13.62
2023-05-05T01:47:27.164Z,13.64
2023-05-05T01:47:43.333Z,13.59
2023-05-05T01:47:59.542Z,13.54
2023-05-05T01:48:15.626Z,13.57
2023-05-05T01:48:31.763Z,13.58
2023-05-05T01:48:47.905Z,13.57
2023-05-05T01:49:04.091Z,13.53
2023-05-05T01:49:20.241Z,13.5
2023-05-05T01:49:36.368Z,13.5
2023-05-05T01:49:52.496Z,13.53
2023-05-05T01:50:09.060Z,13.5
2023-05-05T01:50:24.812Z,13.52
2023-05-05T01:50:40.937Z,13.53
2023-05-05T01:50:57.066Z,13.54
2023-05-05T01:51:13.218Z,13.55
2023-05-05T01:51:29.352Z,13.57
2023-05-05T01:51:45.530Z,13.58
2023-05-05T01:52:01.684Z,13.6
2023-05-05T01:52:17.811Z,13.61
2023-05-05T01:52:33.954Z,13.62
2023-05-05T01:52:50.102Z,13.63
2023-05-05T01:53:06.246Z,13.65
2023-05-05T01:53:22.382Z,13.6
2023-05-05T01:53:38.563Z,13.6
2023-05-05T01:53:54.682Z,13.6
2023-05-05T01:54:10.814Z,13.58
2023-05-05T01:54:26.973Z,13.58
2023-05-05T01:54:43.114Z,13.59
2023-05-05T01:54:59.270Z,13.6
2023-05-05T01:55:15.406Z,13.61
2023-05-05T01:55:31.545Z,13.61
2023-05-05T01:55:47.703Z,13.56
2023-05-05T01:56:03.838Z,13.58
2023-05-05T01:56:19.980Z,13.57
2023-05-05T01:56:36.143Z,13.54
2023-05-05T01:56:52.291Z,13.54
2023-05-05T01:57:08.423Z,13.56
2023-05-05T01:57:24.575Z,13.56
2023-05-05T01:57:40.725Z,13.57
2023-05-05T01:57:56.877Z,13.51
2023-05-05T01:58:13.008Z,13.53
2023-05-05T01:58:29.145Z,13.56
2023-05-05T01:58:45.288Z,13.56
2023-05-05T01:59:01.464Z,13.54
2023-05-05T01:59:17.587Z,13.52
2023-05-05T01:59:33.721Z,13.53
2023-05-05T01:59:49.868Z,13.54
2023-05-05T02:00:06.264Z,13.55
2023-05-05T02:00:22.158Z,13.54
2023-05-05T02:00:38.313Z,13.53
2023-05-05T02:00:54.515Z,13.52
2023-05-05T02:01:10.670Z,13.52
2023-05-05T02:01:26.881Z,13.54
2023-05-05T02:01:42.931Z,13.55
2023-05-05T02:01:59.063Z,13.53
2023-05-05T02:02:15.176Z,13.53
2023-05-05T02:02:31.473Z,13.52
2023-05-05T02:02:47.600Z,13.54
2023-05-05T02:03:03.751Z,13.54
2023-05-05T02:03:20.012Z,13.54
2023-05-05T02:03:35.942Z,13.47
2023-05-05T02:03:52.059Z,13.48
2023-05-05T02:04:08.220Z,13.46
2023-05-05T02:04:24.362Z,13.48
2023-05-05T02:04:40.489Z,13.5
2023-05-05T02:04:56.626Z,13.5
2023-05-05T02:05:12.770Z,13.5
2023-05-05T02:05:28.961Z,13.45
2023-05-05T02:05:45.068Z,13.41
2023-05-05T02:06:01.243Z,13.44
2023-05-05T02:06:17.372Z,13.45
2023-05-05T02:06:33.512Z,13.44
2023-05-05T02:06:49.658Z,13.47
2023-05-05T02:07:05.831Z,13.43
2023-05-05T02:07:21.946Z,13.43
2023-05-05T02:07:38.086Z,13.44
2023-05-05T02:07:54.242Z,13.45
2023-05-05T02:08:10.379Z,13.44
2023-05-05T02:08:26.573Z,13.41
2023-05-05T02:08:42.708Z,13.38
2023-05-05T02:08:58.916Z,13.39
2023-05-05T02:09:14.983Z,13.39
2023-05-05T02:09:31.111Z,13.4
2023-05-05T02:09:47.270Z,13.41
2023-05-05T02:10:03.392Z,13.41
2023-05-05T02:10:19.541Z,13.4
2023-05-05T02:10:35.689Z,13.41
2023-05-05T02:10:51.835Z,13.42
2023-05-05T02:11:19.309Z,13.41
2023-05-05T02:11:35.447Z,13.39
2023-05-05T02:11:51.562Z,13.39
2023-05-05T02:12:07.732Z,13.4
2023-05-05T02:12:23.833Z,13.4
2023-05-05T02:12:40.106Z,13.39
2023-05-05T02:12:56.154Z,13.38
2023-05-05T02:13:12.374Z,13.36
2023-05-05T02:13:28.449Z,13.36
2023-05-05T02:13:44.606Z,13.36
2023-05-05T02:14:00.759Z,13.37
2023-05-05T02:14:16.891Z,13.35
2023-05-05T02:14:33.018Z,13.37
2023-05-05T02:14:49.167Z,13.37
2023-05-05T02:15:05.310Z,13.38
2023-05-05T02:15:21.456Z,13.39
2023-05-05T02:15:37.605Z,13.39
2023-05-05T02:15:53.755Z,13.39
2023-05-05T02:16:09.918Z,13.4
2023-05-05T02:16:26.036Z,13.39
2023-05-05T02:16:42.194Z,13.4
2023-05-05T02:16:58.374Z,13.4
2023-05-05T02:17:14.458Z,13.37
2023-05-05T02:17:30.625Z,13.37
2023-05-05T02:17:46.767Z,13.39
2023-05-05T02:18:02.989Z,13.39
2023-05-05T02:18:19.069Z,13.36
2023-05-05T02:18:35.216Z,13.36
2023-05-05T02:18:51.369Z,13.36
2023-05-05T02:19:07.508Z,13.37
2023-05-05T02:19:23.640Z,13.38
2023-05-05T02:19:39.804Z,13.4
2023-05-05T02:19:55.935Z,13.37
2023-05-05T02:20:12.091Z,13.34
2023-05-05T02:20:28.231Z,13.35
2023-05-05T02:20:44.366Z,13.35
2023-05-05T02:21:00.525Z,13.37
2023-05-05T02:21:16.582Z,13.36
2023-05-05T02:21:32.796Z,13.35
2023-05-05T02:21:48.961Z,13.35
2023-05-05T02:22:05.121Z,13.36
2023-05-05T02:22:21.270Z,13.36
2023-05-05T02:22:37.384Z,13.36
2023-05-05T02:22:53.587Z,13.36
2023-05-05T02:23:09.696Z,13.36
2023-05-05T02:23:25.858Z,13.37
2023-05-05T02:23:41.957Z,13.35
2023-05-05T02:23:58.139Z,13.35
2023-05-05T02:24:14.290Z,13.36
2023-05-05T02:24:30.390Z,13.35
2023-05-05T02:24:46.560Z,13.37
2023-05-05T02:25:02.716Z,13.38
2023-05-05T02:25:18.850Z,13.36
2023-05-05T02:25:34.989Z,13.39
2023-05-05T02:25:51.149Z,13.35
2023-05-05T02:26:07.276Z,13.29
2023-05-05T02:26:23.432Z,13.31
2023-05-05T02:26:39.595Z,13.33
2023-05-05T02:26:55.718Z,13.34
2023-05-05T02:27:11.863Z,13.33
2023-05-05T02:27:28.024Z,13.34
2023-05-05T02:27:44.158Z,13.31
2023-05-05T02:28:00.300Z,13.31
2023-05-05T02:28:16.447Z,13.31
2023-05-05T02:28:32.592Z,13.31
2023-05-05T02:28:48.758Z,13.31
2023-05-05T02:29:04.804Z,13.32
2023-05-05T02:29:21.014Z,13.3
2023-05-05T02:29:37.182Z,13.31
2023-05-05T02:29:53.358Z,13.32
2023-05-05T02:30:09.741Z,13.31
2023-05-05T02:30:25.617Z,13.32
2023-05-05T02:30:58.010Z,13.3
2023-05-05T02:31:14.106Z,13.32
2023-05-05T02:31:30.274Z,13.33
2023-05-05T02:31:46.414Z,13.33
2023-05-05T02:32:02.485Z,13.34
2023-05-05T02:32:18.666Z,13.35
2023-05-05T02:32:34.803Z,13.33
2023-05-05T02:32:50.991Z,13.29
2023-05-05T02:33:07.084Z,13.29
2023-05-05T02:33:23.205Z,13.3
2023-05-05T02:33:39.363Z,13.3
2023-05-05T02:33:55.495Z,13.31
2023-05-05T02:34:11.646Z,13.29
2023-05-05T02:34:27.792Z,13.23
2023-05-05T02:34:43.944Z,13.2
2023-05-05T02:35:00.083Z,13.22
2023-05-05T02:35:16.246Z,13.22
2023-05-05T02:35:32.381Z,13.23
2023-05-05T02:35:48.426Z,13.25
2023-05-05T02:36:04.700Z,13.24
2023-05-05T02:36:20.806Z,13.23
2023-05-05T02:36:36.955Z,13.19
2023-05-05T02:36:53.096Z,13.2
2023-05-05T02:37:09.262Z,13.21
2023-05-05T02:37:25.414Z,13.23
2023-05-05T02:37:41.539Z,13.24
2023-05-05T02:37:57.681Z,13.23
2023-05-05T02:38:13.829Z,13.23
2023-05-05T02:38:29.977Z,13.24
2023-05-05T02:38:46.145Z,13.25
2023-05-05T02:39:02.266Z,13.26
2023-05-05T02:39:18.432Z,13.27
2023-05-05T02:39:34.566Z,13.28
2023-05-05T02:39:50.744Z,13.29
2023-05-05T02:40:07.081Z,13.27
2023-05-05T02:40:23.010Z,13.26
2023-05-05T02:40:39.133Z,13.25
2023-05-05T02:40:55.308Z,13.24
2023-05-05T02:41:11.412Z,13.21
2023-05-05T02:41:27.577Z,13.19
2023-05-05T02:41:43.725Z,13.16
2023-05-05T02:41:59.888Z,13.17
2023-05-05T02:42:16.016Z,13.17
2023-05-05T02:42:32.220Z,13.17
2023-05-05T02:42:48.312Z,13.17
2023-05-05T02:43:04.476Z,13.14
2023-05-05T02:43:20.661Z,13.14
2023-05-05T02:43:36.669Z,13.16
2023-05-05T02:43:52.906Z,13.16
2023-05-05T02:44:09.038Z,13.17
2023-05-05T02:44:25.158Z,13.17
2023-05-05T02:44:41.319Z,13.17
2023-05-05T02:44:57.467Z,13.18
2023-05-05T02:45:13.609Z,13.17
2023-05-05T02:45:29.761Z,13.16
2023-05-05T02:45:45.907Z,13.13
2023-05-05T02:46:02.144Z,13.15
2023-05-05T02:46:18.227Z,13.11
2023-05-05T02:46:34.428Z,13.11
2023-05-05T02:46:50.543Z,13.13
2023-05-05T02:47:06.653Z,13.13
2023-05-05T02:47:22.815Z,13.11
2023-05-05T02:47:39.012Z,13.11
2023-05-05T02:47:55.139Z,13.13
2023-05-05T02:48:11.231Z,13.14
2023-05-05T02:48:27.388Z,13.16
2023-05-05T02:48:43.499Z,13.15
2023-05-05T02:48:59.655Z,13.11
2023-05-05T02:49:15.709Z,13.12
2023-05-05T02:49:31.950Z,13.11
2023-05-05T02:49:48.106Z,13.11
2023-05-05T02:50:04.227Z,13.1
2023-05-05T02:50:20.431Z,13.01
2023-05-05T02:50:36.525Z,13.02
2023-05-05T02:50:52.675Z,13.03
2023-05-05T02:51:08.812Z,13.03
2023-05-05T02:51:24.953Z,13.02
2023-05-05T02:51:41.102Z,13.02
2023-05-05T02:51:57.258Z,12.99
2023-05-05T02:52:13.378Z,12.98
2023-05-05T02:52:29.539Z,12.97
2023-05-05T02:52:45.712Z,12.98
2023-05-05T02:53:01.841Z,12.92
2023-05-05T02:53:17.992Z,12.92
2023-05-05T02:53:34.110Z,12.92
2023-05-05T02:53:50.269Z,12.93
2023-05-05T02:54:06.446Z,12.94
2023-05-05T02:54:22.547Z,12.97
2023-05-05T02:54:38.726Z,12.96
2023-05-05T02:54:54.850Z,12.97
2023-05-05T02:55:11.021Z,12.99
2023-05-05T02:55:27.174Z,12.98
2023-05-05T02:55:43.273Z,12.98
2023-05-05T02:55:59.447Z,13
2023-05-05T02:56:15.621Z,12.97
2023-05-05T02:56:31.759Z,12.99
2023-05-05T02:56:47.892Z,13.01
2023-05-05T02:57:03.943Z,12.99
2023-05-05T02:57:20.151Z,12.98
2023-05-05T02:57:36.289Z,12.94
2023-05-05T02:57:52.451Z,12.93
2023-05-05T02:58:08.593Z,12.91
2023-05-05T02:58:24.732Z,12.91
2023-05-05T02:58:40.899Z,12.92
2023-05-05T02:58:57.026Z,12.93
2023-05-05T02:59:15.877Z,12.96
2023-05-05T02:59:29.317Z,12.95
2023-05-05T02:59:45.470Z,12.95
2023-05-05T03:00:01.654Z,12.94
2023-05-05T03:00:17.754Z,12.93
2023-05-05T03:00:33.889Z,12.92
2023-05-05T03:00:50.074Z,12.89
2023-05-05T03:01:06.224Z,12.92
2023-05-05T03:01:22.381Z,12.94
2023-05-05T03:01:38.542Z,12.96
2023-05-05T03:01:54.732Z,12.96
2023-05-05T03:02:10.774Z,12.97
2023-05-05T03:02:27.016Z,12.96
2023-05-05T03:02:43.213Z,12.96
2023-05-05T03:02:59.304Z,12.93
2023-05-05T03:03:15.396Z,12.93
2023-05-05T03:03:31.593Z,12.93
2023-05-05T03:03:47.753Z,12.92
2023-05-05T03:04:03.820Z,12.93
2023-05-05T03:04:36.098Z,12.82
2023-05-05T03:04:52.156Z,12.85
2023-05-05T03:05:19.659Z,12.85
2023-05-05T03:05:35.838Z,12.84
2023-05-05T03:05:51.957Z,12.76
2023-05-05T03:06:08.099Z,12.78
2023-05-05T03:06:24.237Z,12.77
2023-05-05T03:06:40.383Z,12.78
2023-05-05T03:06:56.540Z,12.78
2023-05-05T03:07:12.675Z,12.76
2023-05-05T03:07:28.818Z,12.77
2023-05-05T03:07:45.006Z,12.74
2023-05-05T03:08:01.141Z,12.77
2023-05-05T03:08:17.268Z,12.75
2023-05-05T03:08:33.458Z,12.72
2023-05-05T03:08:49.553Z,12.73
2023-05-05T03:09:05.754Z,12.7
2023-05-05T03:09:21.776Z,12.68
2023-05-05T03:09:38.007Z,12.66
2023-05-05T03:09:54.145Z,12.64
2023-05-05T03:10:10.384Z,12.62
2023-05-05T03:10:26.427Z,12.64
2023-05-05T03:10:42.612Z,12.64
2023-05-05T03:10:58.728Z,12.62
2023-05-05T03:11:14.867Z,12.63
2023-05-05T03:11:31.005Z,12.64
2023-05-05T03:11:47.190Z,12.67
2023-05-05T03:12:03.363Z,12.61
2023-05-05T03:12:19.441Z,12.62
2023-05-05T03:12:35.626Z,12.64
2023-05-05T03:12:51.766Z,12.66
2023-05-05T03:13:08.020Z,12.69
2023-05-05T03:13:24.022Z,12.69
2023-05-05T03:13:40.191Z,12.64
2023-05-05T03:13:56.322Z,12.63
2023-05-05T03:14:12.468Z,12.63
2023-05-05T03:14:29.578Z,12.6
2023-05-05T03:14:44.775Z,12.64
2023-05-05T03:15:00.921Z,12.63
2023-05-05T03:15:17.048Z,12.63
2023-05-05T03:15:33.190Z,12.66
2023-05-05T03:15:49.331Z,12.68
2023-05-05T03:16:05.536Z,12.69
2023-05-05T03:16:21.679Z,12.69
2023-05-05T03:16:37.873Z,12.71
2023-05-05T03:16:53.945Z,12.67
2023-05-05T03:17:09.994Z,12.66
2023-05-05T03:17:26.228Z,12.63
2023-05-05T03:17:42.382Z,12.64
2023-05-05T03:17:58.543Z,12.61
2023-05-05T03:18:14.656Z,12.63
2023-05-05T03:18:30.778Z,12.65
2023-05-05T03:18:46.969Z,12.65
2023-05-05T03:19:03.095Z,12.64
2023-05-05T03:19:19.258Z,12.63
2023-05-05T03:19:35.398Z,12.67
2023-05-05T03:19:51.511Z,12.69
2023-05-05T03:20:07.978Z,12.63
2023-05-05T03:20:23.827Z,12.66
2023-05-05T03:20:39.976Z,12.68
2023-05-05T03:20:56.101Z,12.64
2023-05-05T03:21:12.258Z,12.62
2023-05-05T03:21:28.395Z,12.63
2023-05-05T03:21:44.547Z,12.61
2023-05-05T03:22:00.690Z,12.6
2023-05-05T03:22:16.831Z,12.62
2023-05-05T03:22:33.004Z,12.63
2023-05-05T03:22:49.130Z,12.64
2023-05-05T03:23:05.262Z,12.62
2023-05-05T03:23:21.402Z,12.63
2023-05-05T03:23:37.568Z,12.65
2023-05-05T03:23:53.616Z,12.67
2023-05-05T03:24:09.877Z,12.65
2023-05-05T03:24:26.028Z,12.65
2023-05-05T03:24:42.145Z,12.65
2023-05-05T03:24:58.323Z,12.63
2023-05-05T03:25:14.427Z,12.63
2023-05-05T03:25:30.581Z,12.62
2023-05-05T03:25:46.761Z,12.59
2023-05-05T03:26:02.855Z,12.56
2023-05-05T03:26:19.032Z,12.57
2023-05-05T03:26:35.155Z,12.59
2023-05-05T03:26:51.309Z,12.53
2023-05-05T03:27:07.457Z,12.52
2023-05-05T03:27:23.613Z,12.5
2023-05-05T03:27:39.737Z,12.51
2023-05-05T03:27:55.886Z,12.53
2023-05-05T03:28:12.071Z,12.54
2023-05-05T03:28:28.172Z,12.52
2023-05-05T03:28:44.346Z,12.52
2023-05-05T03:29:00.464Z,12.49
2023-05-05T03:29:16.660Z,12.5
2023-05-05T03:29:32.766Z,12.52
2023-05-05T03:29:48.963Z,12.54
2023-05-05T03:30:05.140Z,12.57
2023-05-05T03:30:21.191Z,12.56
2023-05-05T03:30:37.345Z,12.56